Time;durP1;ratioP1;P1;durP2;ratioP2;P2;SDS_P1;SDS_P2;PMS_P1;PMS_P2;Temp;Humidity;BMP_temperature;BMP_pressure;BME280_temperature;BME280_humidity;BME280_pressure;Samples;Min_cycle;Max_cycle;Signal;HPM_P1;HPM_P2
2024/01/10 00:01:17;;;;;;;55.93;28.63;;;-6.60;1.00;;;;;;5034865;28;20182;-50
2024/01/10 00:03:42;;;;;;;67.50;31.87;;;-6.50;99.90;;;;;;5034123;28;20499;-50
2024/01/10 00:06:08;;;;;;;63.97;29.87;;;-6.40;1.00;;;;;;5034066;28;20181;-50
2024/01/10 00:08:33;;;;;;;71.63;28.67;;;-6.40;99.90;;;;;;5034592;28;20327;-49
2024/01/10 00:10:59;;;;;;;57.50;28.20;;;-6.30;1.00;;;;;;5034868;28;20192;-49
2024/01/10 00:13:33;;;;;;;59.53;27.00;;;-6.20;99.90;;;;;;5034137;28;20600;-50
2024/01/10 00:15:59;;;;;;;63.43;25.87;;;-6.10;1.00;;;;;;5031561;28;20432;-51
2024/01/10 00:18:25;;;;;;;61.27;26.70;;;-6.00;1.00;;;;;;5034183;28;20422;-51
2024/01/10 00:20:53;;;;;;;71.33;28.00;;;-6.00;1.00;;;;;;5034475;28;20694;-51
2024/01/10 00:23:20;;;;;;;68.20;27.40;;;-5.90;1.00;;;;;;5034952;28;20521;-50
2024/01/10 00:25:46;;;;;;;84.80;32.07;;;-5.80;1.00;;;;;;5034663;28;20442;-50
2024/01/10 00:28:12;;;;;;;78.63;31.73;;;-5.80;1.00;;;;;;5032931;28;20479;-50
2024/01/10 00:30:38;;;;;;;77.20;27.47;;;-5.70;1.00;;;;;;5033986;28;20414;-50
2024/01/10 00:33:04;;;;;;;83.13;26.03;;;-5.60;1.00;;;;;;5034026;28;20241;-52
2024/01/10 00:35:30;;;;;;;58.27;23.63;;;-5.50;99.90;;;;;;5034067;28;20417;-50
2024/01/10 00:37:56;;;;;;;59.60;24.77;;;-5.50;99.90;;;;;;5033434;28;20461;-50
2024/01/10 00:40:21;;;;;;;62.43;22.57;;;-5.40;99.90;;;;;;5033428;28;20433;-50
2024/01/10 00:42:47;;;;;;;64.27;24.00;;;-5.40;99.90;;;;;;5034451;28;20286;-50
2024/01/10 00:45:13;;;;;;;65.03;22.60;;;-5.30;99.90;;;;;;5034244;28;20230;-50
2024/01/10 00:47:38;;;;;;;50.50;21.20;;;-5.30;99.90;;;;;;5033844;28;20553;-51
2024/01/10 00:50:05;;;;;;;60.47;23.67;;;-5.30;99.90;;;;;;5032261;28;20225;-50
2024/01/10 00:52:31;;;;;;;58.67;23.90;;;-5.20;99.90;;;;;;5034013;28;20222;-50
2024/01/10 00:54:56;;;;;;;64.23;24.17;;;-5.20;99.90;;;;;;5033691;28;20429;-51
2024/01/10 00:57:22;;;;;;;67.10;25.47;;;-5.20;99.90;;;;;;5033525;28;20190;-51
2024/01/10 00:59:47;;;;;;;65.67;23.60;;;-5.20;99.90;;;;;;5033209;28;20193;-50
2024/01/10 01:02:13;;;;;;;58.47;23.60;;;-5.10;99.90;;;;;;5033393;28;20214;-50
2024/01/10 01:04:38;;;;;;;61.30;22.50;;;-5.10;1.00;;;;;;5033128;28;20178;-51
2024/01/10 01:07:04;;;;;;;64.47;23.47;;;-5.10;1.00;;;;;;5032789;28;20325;-50
2024/01/10 01:09:29;;;;;;;59.30;22.60;;;-5.10;1.00;;;;;;5033245;28;20225;-50
2024/01/10 01:11:55;;;;;;;63.17;23.63;;;-5.10;99.90;;;;;;5032615;28;20230;-50
2024/01/10 01:14:21;;;;;;;59.73;21.90;;;-5.20;99.90;;;;;;5033559;28;20183;-50
2024/01/10 01:16:46;;;;;;;60.93;22.20;;;-5.20;99.90;;;;;;5033040;28;20258;-50
2024/01/10 01:19:12;;;;;;;51.50;21.70;;;-5.20;1.00;;;;;;5033750;28;20639;-50
2024/01/10 01:21:38;;;;;;;50.47;21.67;;;-5.30;1.00;;;;;;5033133;28;20219;-50
2024/01/10 01:24:03;;;;;;;50.77;21.47;;;-5.30;1.00;;;;;;5033153;28;20635;-51
2024/01/10 01:26:29;;;;;;;50.20;20.53;;;-5.30;1.00;;;;;;5032558;28;20191;-50
2024/01/10 01:28:54;;;;;;;47.20;21.40;;;-5.30;1.00;;;;;;5032726;28;20185;-51
2024/01/10 01:31:20;;;;;;;58.47;21.80;;;-5.20;9.60;;;;;;5032984;28;20682;-52
2024/01/10 01:33:46;;;;;;;43.07;20.00;;;-5.30;97.10;;;;;;5032883;28;20560;-50
2024/01/10 01:36:11;;;;;;;41.93;18.77;;;-5.20;99.90;;;;;;5033361;28;20191;-50
2024/01/10 01:38:37;;;;;;;46.67;18.50;;;-5.10;1.00;;;;;;5032385;28;20190;-50
2024/01/10 01:41:03;;;;;;;41.30;18.13;;;-5.20;99.90;;;;;;5032539;28;20231;-51
2024/01/10 01:43:29;;;;;;;40.07;18.80;;;-5.10;99.90;;;;;;5032769;28;20179;-51
2024/01/10 01:45:56;;;;;;;51.67;19.27;;;-5.10;99.90;;;;;;5032551;28;20185;-51
2024/01/10 01:48:23;;;;;;;43.97;18.90;;;-5.10;91.80;;;;;;5033190;28;20202;-52
2024/01/10 01:50:52;;;;;;;43.03;18.97;;;-5.00;99.90;;;;;;5033275;28;20430;-51
2024/01/10 01:53:19;;;;;;;45.00;19.00;;;-5.00;91.00;;;;;;5031814;28;20422;-52
2024/01/10 01:55:45;;;;;;;45.43;17.63;;;-5.00;1.00;;;;;;5032529;28;20425;-51
2024/01/10 01:58:12;;;;;;;36.40;16.10;;;-5.00;1.00;;;;;;5032631;28;20421;-52
2024/01/10 02:00:38;;;;;;;46.40;18.00;;;-5.00;1.00;;;;;;5032310;28;20419;-51
2024/01/10 02:03:10;;;;;;;36.83;16.23;;;-5.00;3.80;;;;;;5032313;28;20440;-52
2024/01/10 02:05:37;;;;;;;41.70;17.80;;;-5.00;47.20;;;;;;5032025;28;20430;-52
2024/01/10 02:08:02;;;;;;;46.70;19.27;;;-5.00;51.20;;;;;;5032165;28;20938;-51
2024/01/10 02:10:28;;;;;;;44.20;19.03;;;-5.00;58.40;;;;;;5032607;28;20457;-51
2024/01/10 02:12:54;;;;;;;39.83;17.27;;;-5.00;99.90;;;;;;5031724;28;20572;-51
2024/01/10 02:15:19;;;;;;;45.90;18.90;;;-5.00;99.90;;;;;;5032129;28;20179;-51
2024/01/10 02:17:45;;;;;;;44.10;18.83;;;-4.90;1.00;;;;;;5031073;28;20176;-51
2024/01/10 02:20:12;;;;;;;41.77;17.50;;;-4.90;1.00;;;;;;5032413;28;20211;-51
2024/01/10 02:22:38;;;;;;;43.73;19.37;;;-4.90;1.00;;;;;;5032543;28;20218;-51
2024/01/10 02:25:06;;;;;;;46.43;19.27;;;-4.90;67.20;;;;;;5031767;28;20824;-51
2024/01/10 02:27:33;;;;;;;47.00;19.37;;;-4.90;99.90;;;;;;5031438;28;20241;-51
2024/01/10 02:30:01;;;;;;;53.53;21.40;;;-4.90;99.90;;;;;;5031491;28;20824;-51
2024/01/10 02:32:27;;;;;;;43.07;18.63;;;-4.80;99.90;;;;;;5031623;28;20957;-51
2024/01/10 02:34:52;;;;;;;52.97;20.93;;;-4.80;99.90;;;;;;5032180;28;20429;-51
2024/01/10 02:37:18;;;;;;;46.37;19.27;;;-4.80;99.90;;;;;;5032093;28;20183;-51
2024/01/10 02:39:44;;;;;;;46.60;20.60;;;-4.80;99.90;;;;;;5031233;28;20217;-51
2024/01/10 02:42:09;;;;;;;47.70;20.47;;;-4.80;99.90;;;;;;5031102;28;20194;-51
2024/01/10 02:44:35;;;;;;;45.00;18.90;;;-4.70;99.90;;;;;;5032228;28;20187;-51
2024/01/10 02:47:00;;;;;;;42.80;19.17;;;-4.70;99.90;;;;;;5031792;28;20193;-52
2024/01/10 02:49:26;;;;;;;43.33;19.07;;;-4.70;99.90;;;;;;5032193;28;20209;-51
2024/01/10 02:51:51;;;;;;;33.83;16.03;;;-4.70;99.90;;;;;;5031257;28;20222;-51
2024/01/10 02:54:17;;;;;;;49.17;19.20;;;-4.70;99.90;;;;;;5032023;28;20179;-51
2024/01/10 02:56:42;;;;;;;37.93;17.00;;;-4.70;99.90;;;;;;5031632;28;20171;-51
2024/01/10 02:59:08;;;;;;;38.83;16.53;;;-4.70;99.90;;;;;;5030845;28;20283;-51
2024/01/10 03:01:33;;;;;;;40.33;17.50;;;-4.60;99.90;;;;;;5031252;28;20280;-51
2024/01/10 03:03:59;;;;;;;40.90;18.37;;;-4.60;1.00;;;;;;5031814;28;20185;-51
2024/01/10 03:06:25;;;;;;;42.07;19.43;;;-4.60;1.00;;;;;;5031008;28;20271;-51
2024/01/10 03:08:51;;;;;;;36.77;17.40;;;-4.50;1.00;;;;;;5032269;28;20186;-52
2024/01/10 03:11:16;;;;;;;45.83;19.20;;;-4.50;1.00;;;;;;5031558;28;20559;-51
2024/01/10 03:13:45;;;;;;;41.07;18.10;;;-4.40;1.00;;;;;;5031080;28;20182;-51
2024/01/10 03:16:11;;;;;;;39.77;17.37;;;-4.40;11.20;;;;;;5031472;28;20219;-52
2024/01/10 03:18:36;;;;;;;46.67;19.00;;;-4.40;52.80;;;;;;5031665;28;20461;-51
2024/01/10 03:21:02;;;;;;;42.77;18.50;;;-4.30;99.90;;;;;;5030874;28;20269;-51
2024/01/10 03:23:27;;;;;;;42.47;17.57;;;-4.30;99.90;;;;;;5030809;28;20178;-51
2024/01/10 03:25:53;;;;;;;36.67;17.30;;;-4.30;99.90;;;;;;5031522;28;20214;-51
2024/01/10 03:28:19;;;;;;;43.13;17.77;;;-4.20;99.90;;;;;;5032146;28;20592;-51
2024/01/10 03:30:45;;;;;;;37.90;18.50;;;-4.20;99.90;;;;;;5033203;28;20237;-50
2024/01/10 03:33:11;;;;;;;46.67;20.60;;;-4.20;99.90;;;;;;5034698;28;20793;-51
2024/01/10 03:35:36;;;;;;;47.93;19.60;;;-4.10;99.90;;;;;;5035040;28;20544;-51
2024/01/10 03:38:02;;;;;;;42.57;19.47;;;-4.00;99.90;;;;;;5035488;28;20776;-50
2024/01/10 03:40:27;;;;;;;47.03;18.97;;;-4.00;99.90;;;;;;5035170;28;20175;-50
2024/01/10 03:42:53;;;;;;;45.60;19.57;;;-3.90;99.90;;;;;;5035362;28;20188;-50
2024/01/10 03:45:22;;;;;;;42.47;19.40;;;-3.90;99.90;;;;;;5034488;28;20182;-51
2024/01/10 03:47:50;;;;;;;48.63;19.30;;;-3.90;99.90;;;;;;5034539;28;20712;-51
2024/01/10 03:50:19;;;;;;;44.40;19.90;;;-3.90;99.90;;;;;;5035494;28;20775;-51
2024/01/10 03:52:45;;;;;;;51.13;21.90;;;-3.90;99.90;;;;;;5035052;28;20511;-51
2024/01/10 03:55:12;;;;;;;49.07;19.83;;;-3.90;97.00;;;;;;5034278;28;20430;-51
2024/01/10 03:57:38;;;;;;;50.53;21.20;;;-3.90;1.00;;;;;;5034846;28;20417;-51
2024/01/10 04:00:06;;;;;;;51.30;20.90;;;-3.90;1.00;;;;;;5034364;28;20519;-50
2024/01/10 04:02:32;;;;;;;47.30;21.07;;;-3.90;1.00;;;;;;5034602;28;20457;-50
2024/01/10 04:04:58;;;;;;;50.03;22.00;;;-3.90;1.00;;;;;;5034830;28;20587;-50
2024/01/10 04:07:23;;;;;;;50.87;22.07;;;-3.90;1.00;;;;;;5034188;28;20602;-51
2024/01/10 04:09:49;;;;;;;50.90;22.27;;;-3.90;1.00;;;;;;5034254;28;20187;-51
2024/01/10 04:12:14;;;;;;;54.77;22.27;;;-3.90;1.00;;;;;;5034068;28;20211;-50
2024/01/10 04:14:40;;;;;;;51.17;21.57;;;-3.90;1.00;;;;;;5034602;28;20179;-51
2024/01/10 04:17:06;;;;;;;55.33;20.87;;;-3.90;1.00;;;;;;5033750;28;20215;-51
2024/01/10 04:19:32;;;;;;;54.93;21.93;;;-3.90;1.00;;;;;;5034184;28;20194;-50
2024/01/10 04:21:59;;;;;;;49.60;21.70;;;-3.90;1.00;;;;;;5034448;28;20846;-51
2024/01/10 04:24:24;;;;;;;47.23;21.00;;;-3.80;1.00;;;;;;5034855;28;20190;-51
2024/01/10 04:26:50;;;;;;;47.47;21.07;;;-3.80;39.80;;;;;;5033846;28;20513;-51
2024/01/10 04:29:16;;;;;;;53.23;21.60;;;-3.70;76.40;;;;;;5034259;28;20186;-51
2024/01/10 04:31:41;;;;;;;48.67;20.63;;;-3.70;1.00;;;;;;5034114;28;20640;-51
2024/01/10 04:34:07;;;;;;;49.97;20.83;;;-3.70;11.70;;;;;;5033840;28;20528;-51
2024/01/10 04:36:33;;;;;;;50.80;20.50;;;-3.70;95.30;;;;;;5034461;28;20184;-51
2024/01/10 04:38:58;;;;;;;48.87;22.23;;;-3.70;99.90;;;;;;5033870;28;20186;-52
2024/01/10 04:41:24;;;;;;;45.03;19.00;;;-3.60;92.60;;;;;;5033941;28;20700;-52
2024/01/10 04:43:49;;;;;;;52.90;21.27;;;-3.60;99.90;;;;;;5033965;28;20180;-51
2024/01/10 04:46:15;;;;;;;45.20;19.80;;;-3.50;94.40;;;;;;5033566;28;20207;-51
2024/01/10 04:48:41;;;;;;;45.03;19.67;;;-3.50;1.00;;;;;;5034299;28;20392;-51
2024/01/10 04:51:06;;;;;;;46.57;20.20;;;-3.50;1.00;;;;;;5033498;28;20224;-52
2024/01/10 04:53:32;;;;;;;45.07;19.77;;;-3.50;1.00;;;;;;5033774;28;20273;-51
2024/01/10 04:55:58;;;;;;;42.10;19.50;;;-3.50;1.00;;;;;;5033572;28;20184;-52
2024/01/10 04:58:23;;;;;;;38.60;18.97;;;-3.50;1.00;;;;;;5033098;28;20187;-52
2024/01/10 05:00:49;;;;;;;38.47;17.23;;;-3.40;63.90;;;;;;5034113;28;20706;-51
2024/01/10 05:03:15;;;;;;;34.70;15.90;;;-3.40;1.00;;;;;;5033629;28;20188;-51
2024/01/10 05:05:41;;;;;;;35.90;16.70;;;-3.40;1.00;;;;;;5032923;28;20187;-51
2024/01/10 05:08:06;;;;;;;33.80;15.27;;;-3.30;1.00;;;;;;5033211;28;20890;-52
2024/01/10 05:10:32;;;;;;;31.30;16.07;;;-3.30;1.00;;;;;;5033401;28;20702;-52
2024/01/10 05:12:58;;;;;;;36.87;15.93;;;-3.40;1.00;;;;;;5033235;28;20288;-52
2024/01/10 05:15:23;;;;;;;33.17;16.03;;;-3.40;99.90;;;;;;5033218;28;20623;-50
2024/01/10 05:17:49;;;;;;;31.43;14.87;;;-3.30;99.90;;;;;;5033993;28;20274;-49
2024/01/10 05:20:14;;;;;;;30.47;14.97;;;-3.40;99.90;;;;;;5032745;28;20186;-52
2024/01/10 05:22:40;;;;;;;36.13;16.43;;;-3.30;99.90;;;;;;5033477;28;20195;-51
2024/01/10 05:25:06;;;;;;;31.87;15.90;;;-3.40;99.90;;;;;;5033274;28;20240;-51
2024/01/10 05:27:32;;;;;;;38.43;15.97;;;-3.40;99.90;;;;;;5033108;28;20187;-51
2024/01/10 05:29:59;;;;;;;29.10;15.80;;;-3.30;99.90;;;;;;5032575;28;20742;-51
2024/01/10 05:32:26;;;;;;;34.77;16.33;;;-3.30;99.90;;;;;;5032916;28;20223;-51
2024/01/10 05:34:52;;;;;;;38.00;16.00;;;-3.40;99.90;;;;;;5033363;28;20421;-52
2024/01/10 05:37:17;;;;;;;30.83;13.70;;;-3.40;99.90;;;;;;5032774;28;20429;-51
2024/01/10 05:39:43;;;;;;;29.57;14.20;;;-3.40;99.90;;;;;;5032572;28;20182;-52
2024/01/10 05:42:08;;;;;;;29.43;15.30;;;-3.40;99.90;;;;;;5032574;28;20282;-52
2024/01/10 05:44:34;;;;;;;35.97;14.20;;;-3.40;54.20;;;;;;5032716;28;20222;-51
2024/01/10 05:46:59;;;;;;;29.77;14.20;;;-3.40;4.50;;;;;;5032390;28;20183;-51
2024/01/10 05:49:25;;;;;;;30.03;14.37;;;-3.40;19.30;;;;;;5032954;28;20188;-51
2024/01/10 05:51:51;;;;;;;28.13;13.40;;;-3.50;76.50;;;;;;5033027;28;20224;-52
2024/01/10 05:54:18;;;;;;;28.20;14.20;;;-3.50;99.90;;;;;;5031081;28;20420;-51
2024/01/10 05:56:43;;;;;;;30.70;14.10;;;-3.50;99.90;;;;;;5032647;28;20657;-51
2024/01/10 05:59:11;;;;;;;25.20;13.90;;;-3.50;99.90;;;;;;5032421;28;20414;-50
2024/01/10 06:01:38;;;;;;;29.00;14.40;;;-3.40;99.90;;;;;;5032063;28;20191;-51
2024/01/10 06:04:04;;;;;;;30.47;13.50;;;-3.50;99.90;;;;;;5032852;28;20414;-51
2024/01/10 06:06:30;;;;;;;27.63;13.77;;;-3.40;99.90;;;;;;5032316;28;20797;-51
2024/01/10 06:08:55;;;;;;;29.43;14.53;;;-3.40;99.90;;;;;;5032122;28;20477;-51
2024/01/10 06:11:21;;;;;;;34.20;14.40;;;-3.40;99.90;;;;;;5032508;28;20269;-51
2024/01/10 06:13:46;;;;;;;28.50;12.43;;;-3.50;1.00;;;;;;5031917;28;20183;-51
2024/01/10 06:16:13;;;;;;;25.90;13.33;;;-3.50;86.00;;;;;;5032476;28;20667;-50
2024/01/10 06:18:39;;;;;;;25.20;11.73;;;-3.40;99.90;;;;;;5032455;28;20187;-51
2024/01/10 06:21:04;;;;;;;21.53;10.47;;;-3.40;99.90;;;;;;5032012;28;20426;-51
2024/01/10 06:23:30;;;;;;;23.30;11.13;;;-3.40;99.90;;;;;;5031474;28;20641;-52
2024/01/10 06:25:56;;;;;;;23.90;10.27;;;-3.40;99.90;;;;;;5032020;28;20555;-51
2024/01/10 06:28:23;;;;;;;20.50;9.90;;;-3.40;99.90;;;;;;5031911;28;20198;-55
2024/01/10 06:30:48;;;;;;;23.40;12.03;;;-3.40;99.90;;;;;;5032816;28;20570;-51
2024/01/10 06:33:14;;;;;;;22.10;11.37;;;-3.40;99.90;;;;;;5031969;28;20469;-51
2024/01/10 06:35:43;;;;;;;23.43;10.70;;;-3.40;99.90;;;;;;5031488;28;20236;-50
2024/01/10 06:38:09;;;;;;;21.67;10.63;;;-3.40;32.00;;;;;;5031252;28;20421;-49
2024/01/10 06:40:35;;;;;;;24.50;11.60;;;-3.40;1.00;;;;;;5032103;28;20513;-51
2024/01/10 06:43:00;;;;;;;23.13;11.33;;;-3.40;99.90;;;;;;5032091;28;20564;-51
2024/01/10 06:45:26;;;;;;;19.90;9.77;;;-3.50;76.90;;;;;;5031487;28;20233;-50
2024/01/10 06:47:52;;;;;;;19.10;10.77;;;-3.50;1.00;;;;;;5030969;28;20184;-51
2024/01/10 06:50:19;;;;;;;25.50;12.10;;;-3.50;1.00;;;;;;5031844;28;20417;-51
2024/01/10 06:52:45;;;;;;;26.07;12.50;;;-3.50;1.00;;;;;;5031531;28;20214;-51
2024/01/10 06:55:10;;;;;;;21.80;11.60;;;-3.50;1.00;;;;;;5031448;28;20998;-51
2024/01/10 06:57:36;;;;;;;30.20;12.87;;;-3.50;1.00;;;;;;5031826;28;20674;-51
2024/01/10 07:00:06;;;;;;;30.53;14.80;;;-3.50;57.40;;;;;;5031265;28;20183;-51
2024/01/10 07:02:32;;;;;;;27.40;14.00;;;-3.40;99.90;;;;;;5030975;28;20198;-51
2024/01/10 07:04:58;;;;;;;23.87;12.47;;;-3.40;99.90;;;;;;5032018;28;20893;-51
2024/01/10 07:07:23;;;;;;;30.70;13.37;;;-3.40;1.00;;;;;;5035396;28;20476;-52
2024/01/10 07:09:49;;;;;;;25.90;13.00;;;-3.30;1.00;;;;;;5034521;28;20240;-51
2024/01/10 07:12:14;;;;;;;22.77;12.17;;;-3.30;1.00;;;;;;5035061;28;20202;-52
2024/01/10 07:14:40;;;;;;;27.63;12.80;;;-3.30;1.00;;;;;;5035290;28;20275;-50
2024/01/10 07:17:06;;;;;;;26.50;13.80;;;-3.30;1.00;;;;;;5035785;28;20187;-50
2024/01/10 07:19:32;;;;;;;25.77;13.50;;;-3.30;1.00;;;;;;5035400;28;20548;-51
2024/01/10 07:21:57;;;;;;;25.10;13.10;;;-3.20;1.00;;;;;;5035325;28;20446;-51
2024/01/10 07:24:23;;;;;;;26.27;13.70;;;-3.20;99.90;;;;;;5035080;28;20186;-51
2024/01/10 07:26:48;;;;;;;27.50;13.67;;;-3.30;1.00;;;;;;5035766;28;20189;-50
2024/01/10 07:29:14;;;;;;;28.23;14.17;;;-3.30;38.80;;;;;;5035767;28;20642;-51
2024/01/10 07:31:40;;;;;;;25.73;13.70;;;-3.30;99.90;;;;;;5034677;28;20218;-52
2024/01/10 07:34:06;;;;;;;33.27;14.70;;;-3.30;1.00;;;;;;5034640;28;20194;-50
2024/01/10 07:36:35;;;;;;;28.57;14.00;;;-3.30;1.00;;;;;;5035222;28;20890;-50
2024/01/10 07:39:01;;;;;;;29.50;15.37;;;-3.20;99.90;;;;;;5035341;28;20424;-50
2024/01/10 07:41:27;;;;;;;25.07;13.63;;;-3.20;1.00;;;;;;5035763;28;20422;-51
2024/01/10 07:43:52;;;;;;;25.83;13.57;;;-3.20;99.90;;;;;;5034195;28;20194;-52
2024/01/10 07:46:18;;;;;;;26.00;14.83;;;-3.20;1.00;;;;;;5035483;28;20176;-51
2024/01/10 07:48:43;;;;;;;24.47;14.03;;;-3.20;1.00;;;;;;5034590;28;20179;-50
2024/01/10 07:51:09;;;;;;;22.83;13.43;;;-3.10;1.00;;;;;;5034521;28;20176;-50
2024/01/10 07:53:36;;;;;;;27.50;14.87;;;-3.10;99.90;;;;;;5034921;28;20195;-51
2024/01/10 07:56:01;;;;;;;27.67;14.23;;;-3.10;11.10;;;;;;5034798;28;20985;-51
2024/01/10 07:58:27;;;;;;;27.70;14.77;;;-3.10;1.00;;;;;;5035333;28;20502;-50
2024/01/10 08:00:54;;;;;;;25.90;14.40;;;-3.10;1.00;;;;;;5034350;28;20199;-51
2024/01/10 08:03:19;;;;;;;25.70;14.23;;;-3.10;95.70;;;;;;5034874;28;20410;-51
2024/01/10 08:05:46;;;;;;;28.37;13.97;;;-3.00;1.00;;;;;;5034741;28;20783;-51
2024/01/10 08:08:13;;;;;;;25.47;13.23;;;-3.10;99.90;;;;;;5041801;28;20341;-50
2024/01/10 08:10:39;;;;;;;29.00;15.07;;;-3.10;59.60;;;;;;5034532;28;21026;-50
2024/01/10 08:13:05;;;;;;;27.00;14.20;;;-3.10;99.90;;;;;;5033772;28;20476;-51
2024/01/10 08:15:34;;;;;;;30.13;15.27;;;-3.00;99.90;;;;;;5033517;28;20480;-51
2024/01/10 08:18:00;;;;;;;31.43;16.23;;;-3.00;99.90;;;;;;5034943;28;20184;-49
2024/01/10 08:20:28;;;;;;;27.30;14.80;;;-2.90;1.00;;;;;;5034374;28;21005;-51
2024/01/10 08:22:54;;;;;;;28.70;14.23;;;-3.00;98.30;;;;;;5033743;28;20509;-51
2024/01/10 08:25:19;;;;;;;26.27;14.60;;;-3.00;54.40;;;;;;5034268;28;20210;-51
2024/01/10 08:27:45;;;;;;;30.93;16.17;;;-2.90;99.90;;;;;;5034319;28;20190;-51
2024/01/10 08:30:11;;;;;;;30.60;15.67;;;-2.90;14.80;;;;;;5034408;28;20239;-51
2024/01/10 08:32:36;;;;;;;28.83;16.10;;;-2.90;96.50;;;;;;5034152;28;20215;-50
2024/01/10 08:35:04;;;;;;;31.20;15.80;;;-2.80;1.00;;;;;;5033446;28;20415;-51
2024/01/10 08:37:30;;;;;;;26.80;15.53;;;-2.70;7.50;;;;;;5034099;28;20180;-51
2024/01/10 08:39:56;;;;;;;29.83;16.17;;;-2.70;1.00;;;;;;5034349;28;20406;-50
2024/01/10 08:42:21;;;;;;;37.10;17.10;;;-2.80;1.00;;;;;;5034583;28;20175;-51
2024/01/10 08:44:47;;;;;;;34.40;17.07;;;-2.80;1.00;;;;;;5033777;28;20633;-50
2024/01/10 08:47:13;;;;;;;29.90;16.37;;;-2.70;99.90;;;;;;5033736;28;20201;-51
2024/01/10 08:49:39;;;;;;;29.20;15.80;;;-2.60;33.00;;;;;;5033747;28;20194;-49
2024/01/10 08:52:05;;;;;;;34.03;17.20;;;-2.60;1.00;;;;;;5033633;28;20464;-50
2024/01/10 08:54:30;;;;;;;37.23;17.63;;;-2.60;1.00;;;;;;5033344;28;20176;-49
2024/01/10 08:56:56;;;;;;;29.23;14.63;;;-2.50;1.00;;;;;;5033303;28;20187;-50
2024/01/10 08:59:22;;;;;;;27.77;15.60;;;-2.40;99.90;;;;;;5034378;28;20258;-50
2024/01/10 09:01:47;;;;;;;25.93;13.90;;;-2.40;99.90;;;;;;5033972;28;20835;-50
2024/01/10 09:04:13;;;;;;;30.30;14.70;;;-2.40;67.90;;;;;;5033922;28;20541;-50
2024/01/10 09:06:39;;;;;;;26.47;14.80;;;-2.40;1.00;;;;;;5033156;28;20183;-51
2024/01/10 09:09:04;;;;;;;26.50;14.00;;;-2.40;1.00;;;;;;5032859;28;20238;-51
2024/01/10 09:11:30;;;;;;;28.73;14.93;;;-2.30;99.90;;;;;;5033463;28;20207;-50
2024/01/10 09:13:56;;;;;;;24.07;13.70;;;-2.30;99.90;;;;;;5033781;28;20183;-50
2024/01/10 09:16:22;;;;;;;30.77;14.70;;;-2.30;99.90;;;;;;5033492;28;20501;-50
2024/01/10 09:18:49;;;;;;;25.90;14.63;;;-2.20;1.00;;;;;;5032723;28;20172;-50
2024/01/10 09:21:15;;;;;;;26.50;15.23;;;-2.20;1.00;;;;;;5033510;28;20234;-50
2024/01/10 09:23:41;;;;;;;32.60;15.03;;;-2.10;1.00;;;;;;5033782;28;20823;-50
2024/01/10 09:26:08;;;;;;;28.87;15.67;;;-2.00;1.00;;;;;;5033368;28;20562;-50
2024/01/10 09:28:34;;;;;;;28.33;16.23;;;-1.90;99.90;;;;;;5032319;28;20200;-50
2024/01/10 09:30:59;;;;;;;29.80;17.13;;;-1.60;99.90;;;;;;5032165;28;20415;-50
2024/01/10 09:33:25;;;;;;;27.27;15.20;;;-1.50;59.10;;;;;;5032842;28;20269;-51
2024/01/10 09:35:50;;;;;;;27.03;15.50;;;-1.30;1.00;;;;;;5033617;28;20258;-52
2024/01/10 09:38:16;;;;;;;28.20;15.57;;;-1.20;99.90;;;;;;5033035;28;20187;-51
2024/01/10 09:40:43;;;;;;;31.67;15.10;;;-1.10;99.90;;;;;;5032603;28;20249;-51
2024/01/10 09:43:09;;;;;;;28.57;15.90;;;-1.10;99.90;;;;;;5032892;28;20414;-52
2024/01/10 09:45:46;;;;;;;28.07;16.00;;;-1.00;99.90;;;;;;5032773;28;20501;-51
2024/01/10 09:48:13;;;;;;;23.87;13.90;;;-0.80;99.90;;;;;;5032769;28;20409;-51
2024/01/10 09:50:39;;;;;;;26.57;15.10;;;-0.80;1.00;;;;;;5032451;28;20835;-51
2024/01/10 09:53:06;;;;;;;24.50;14.37;;;-0.70;1.00;;;;;;5030817;28;20549;-51
2024/01/10 09:55:35;;;;;;;25.17;14.17;;;-0.50;1.00;;;;;;5032226;28;20168;-51
2024/01/10 09:58:10;;;;;;;23.63;14.00;;;-0.50;99.90;;;;;;5032975;28;20410;-51
2024/01/10 10:00:36;;;;;;;24.30;14.27;;;-0.40;99.90;;;;;;5032182;28;20428;-51
2024/01/10 10:03:04;;;;;;;25.77;14.03;;;-0.40;99.90;;;;;;5032754;28;20419;-51
2024/01/10 10:05:30;;;;;;;26.40;14.60;;;-0.20;99.90;;;;;;5032647;28;20419;-51
2024/01/10 10:07:57;;;;;;;25.93;13.87;;;-0.10;99.90;;;;;;5031730;28;20468;-50
2024/01/10 10:10:23;;;;;;;24.27;13.40;;;-0.10;99.90;;;;;;5031947;28;20179;-51
2024/01/10 10:12:53;;;;;;;22.83;11.57;;;0.00;99.90;;;;;;5032210;28;20461;-50
2024/01/10 10:15:23;;;;;;;21.23;13.10;;;-0.20;61.50;;;;;;5032550;28;20265;-51
2024/01/10 10:17:50;;;;;;;20.53;12.90;;;-0.50;65.60;;;;;;5032513;28;20418;-51
2024/01/10 10:20:26;;;;;;;26.10;13.70;;;-0.70;99.90;;;;;;5032123;28;20418;-51
2024/01/10 10:23:00;;;;;;;23.93;13.20;;;-0.90;99.90;;;;;;5031922;28;20460;-50
2024/01/10 10:25:31;;;;;;;29.63;14.83;;;-0.80;99.90;;;;;;5032222;28;20426;-50
2024/01/10 10:27:57;;;;;;;28.47;15.53;;;-0.50;99.90;;;;;;5032217;28;20407;-50
2024/01/10 10:30:22;;;;;;;31.27;16.40;;;-0.10;71.60;;;;;;5032003;28;20417;-52
2024/01/10 10:32:49;;;;;;;26.87;14.77;;;0.20;15.00;;;;;;5031437;28;20218;-51
2024/01/10 10:35:14;;;;;;;28.90;16.20;;;0.70;35.60;;;;;;5031927;28;20191;-50
2024/01/10 10:37:40;;;;;;;22.87;14.20;;;1.20;1.00;;;;;;5032370;28;20429;-50
2024/01/10 10:40:09;;;;;;;27.03;15.60;;;1.50;1.00;;;;;;5031703;28;20707;-50
2024/01/10 10:42:38;;;;;;;24.93;13.40;;;1.80;1.00;;;;;;5032150;28;20188;-50
2024/01/10 10:45:06;;;;;;;27.37;14.97;;;1.80;1.00;;;;;;5031391;28;20418;-51
2024/01/10 10:47:36;;;;;;;23.63;14.27;;;1.80;1.00;;;;;;5030851;28;20429;-50
2024/01/10 10:50:04;;;;;;;25.30;14.10;;;2.30;1.00;;;;;;5032413;28;20886;-50
2024/01/10 10:52:31;;;;;;;23.77;13.87;;;3.20;1.00;;;;;;5031868;28;20466;-50
2024/01/10 10:54:59;;;;;;;24.20;13.60;;;4.40;1.00;;;;;;5030901;28;20422;-50
2024/01/10 10:57:28;;;;;;;22.57;12.83;;;4.70;1.00;;;;;;5031750;28;20429;-50
2024/01/10 10:59:57;;;;;;;21.30;12.27;;;4.90;1.00;;;;;;5032160;28;20438;-50
2024/01/10 11:02:23;;;;;;;20.30;13.47;;;5.10;1.00;;;;;;5031352;28;20496;-51
2024/01/10 11:04:49;;;;;;;21.20;13.70;;;4.60;1.00;;;;;;5031813;28;20406;-50
2024/01/10 11:07:15;;;;;;;24.47;14.00;;;3.70;1.00;;;;;;5030632;28;20460;-50
2024/01/10 11:09:44;;;;;;;23.43;13.40;;;2.90;1.00;;;;;;5031373;28;20488;-50
2024/01/10 11:12:32;;;;;;;24.30;13.60;;;2.70;1.00;;;;;;5031474;28;20214;-50
2024/01/10 11:15:09;;;;;;;21.70;13.67;;;2.90;1.00;;;;;;5031302;28;20418;-51
2024/01/10 11:18:02;;;;;;;20.73;13.10;;;4.50;1.00;;;;;;5030695;28;20413;-50
2024/01/10 11:20:59;;;;;;;21.87;13.37;;;5.00;1.00;;;;;;5031627;28;20775;-50
2024/01/10 11:23:42;;;;;;;24.30;13.00;;;3.90;1.00;;;;;;5031982;28;20452;-50
2024/01/10 11:26:08;;;;;;;18.40;12.13;;;3.30;1.00;;;;;;5031124;28;20403;-50
2024/01/10 11:28:37;;;;;;;19.13;11.87;;;3.20;1.00;;;;;;5030486;28;20424;-50
2024/01/10 11:31:03;;;;;;;20.43;13.00;;;3.90;1.00;;;;;;5031890;28;20452;-49
2024/01/10 11:33:33;;;;;;;18.37;11.30;;;4.70;1.00;;;;;;5031856;28;20620;-49
2024/01/10 11:36:19;;;;;;;19.73;12.60;;;5.20;1.00;;;;;;5030913;28;20196;-49
2024/01/10 11:38:51;;;;;;;19.03;11.80;;;5.40;1.00;;;;;;5031088;28;20937;-49
2024/01/10 11:41:36;;;;;;;20.10;12.63;;;5.00;1.00;;;;;;5031210;28;20444;-49
2024/01/10 11:44:11;;;;;;;17.47;10.70;;;4.40;1.00;;;;;;5031380;28;20431;-48
2024/01/10 11:46:40;;;;;;;20.03;13.23;;;4.00;1.00;;;;;;5031282;28;20410;-49
2024/01/10 11:49:11;;;;;;;16.47;11.37;;;3.40;1.00;;;;;;5030709;28;20421;-49
2024/01/10 11:51:37;;;;;;;17.90;10.83;;;2.90;1.00;;;;;;5033256;28;20463;-49
2024/01/10 11:54:03;;;;;;;17.37;11.87;;;2.10;1.00;;;;;;5034768;28;20947;-49
2024/01/10 11:56:42;;;;;;;19.40;11.97;;;1.60;1.00;;;;;;5034346;28;20202;-49
2024/01/10 11:59:11;;;;;;;15.23;10.20;;;1.40;1.00;;;;;;5034744;28;20183;-48
2024/01/10 12:01:38;;;;;;;19.27;11.00;;;1.40;1.00;;;;;;5035353;28;20440;-49
2024/01/10 12:04:04;;;;;;;16.37;10.70;;;1.50;1.00;;;;;;5034611;28;20406;-49
2024/01/10 12:06:31;;;;;;;15.67;10.10;;;1.70;1.00;;;;;;5034058;28;20970;-50
2024/01/10 12:08:57;;;;;;;21.13;11.30;;;2.00;1.00;;;;;;5034302;28;20480;-49
2024/01/10 12:11:23;;;;;;;15.50;10.23;;;2.10;1.00;;;;;;5034540;28;20406;-49
2024/01/10 12:13:48;;;;;;;19.30;11.13;;;2.00;1.00;;;;;;5034444;28;20190;-49
2024/01/10 12:16:14;;;;;;;15.97;10.60;;;1.70;1.00;;;;;;5034780;28;20944;-50
2024/01/10 12:18:40;;;;;;;18.63;11.10;;;1.50;1.00;;;;;;5034596;28;20183;-49
2024/01/10 12:21:08;;;;;;;17.77;10.80;;;1.30;1.00;;;;;;5033749;28;20514;-49
2024/01/10 12:23:38;;;;;;;17.60;9.63;;;1.90;1.00;;;;;;5034602;28;20893;-50
2024/01/10 12:26:07;;;;;;;13.63;8.90;;;3.10;1.00;;;;;;5033985;28;20422;-50
2024/01/10 12:28:34;;;;;;;12.93;8.70;;;4.50;1.00;;;;;;5034071;28;20772;-50
2024/01/10 12:30:59;;;;;;;12.60;8.50;;;6.40;1.00;;;;;;5033831;28;20422;-50